Time;durP1;ratioP1;P1;durP2;ratioP2;P2;SDS_P1;SDS_P2;PMS_P1;PMS_P2;Temp;Humidity;BMP_temperature;BMP_pressure;BME280_temperature;BME280_humidity;BME280_pressure;Samples;Min_cycle;Max_cycle;Signal;HPM_P1;HPM_P2
2022/04/20 00:01:08;;;;;;;6.55;3.70;;;8.20;90.90;;;;;;4734369;28;10000491;-82
2022/04/20 00:03:34;;;;;;;8.73;3.70;;;8.20;90.60;;;;;;5086275;28;20024;-83
2022/04/20 00:06:00;;;;;;;4.55;3.22;;;8.20;90.80;;;;;;5092241;28;20020;-82
2022/04/20 00:08:25;;;;;;;5.68;3.35;;;8.10;90.80;;;;;;5089080;28;20068;-82
2022/04/20 00:10:51;;;;;;;5.15;2.97;;;8.10;90.80;;;;;;5093381;28;20020;-82
2022/04/20 00:13:17;;;;;;;5.53;3.70;;;8.10;90.80;;;;;;5089485;28;20024;-82
2022/04/20 00:15:43;;;;;;;5.53;3.15;;;8.10;90.90;;;;;;5087033;28;20016;-82
2022/04/20 00:18:08;;;;;;;5.22;3.50;;;8.10;90.90;;;;;;5088294;28;20469;-82
2022/04/20 00:20:34;;;;;;;5.80;3.15;;;8.10;91.00;;;;;;5093205;28;20569;-82
2022/04/20 00:22:59;;;;;;;9.07;3.45;;;8.10;91.10;;;;;;5086877;28;20020;-82
2022/04/20 00:25:25;;;;;;;8.40;3.47;;;8.00;91.20;;;;;;5091961;28;20023;-82
2022/04/20 00:27:51;;;;;;;5.13;3.10;;;8.00;91.20;;;;;;5104142;28;20467;-82
2022/04/20 00:30:16;;;;;;;11.25;3.83;;;8.00;91.30;;;;;;5096965;28;20052;-81
2022/04/20 00:32:42;;;;;;;7.68;4.07;;;7.90;91.40;;;;;;5084874;28;20132;-81
2022/04/20 00:35:10;;;;;;;6.57;3.50;;;7.90;91.50;;;;;;5085886;28;20032;-82
2022/04/20 00:37:36;;;;;;;7.15;3.75;;;7.90;91.60;;;;;;5088951;28;20052;-82
2022/04/20 00:40:05;;;;;;;9.05;3.80;;;7.90;91.60;;;;;;5093918;28;20035;-82
2022/04/20 00:42:32;;;;;;;6.95;3.60;;;7.90;91.60;;;;;;5086653;28;20055;-82
2022/04/20 00:44:58;;;;;;;5.00;3.67;;;7.90;91.70;;;;;;5085543;28;20032;-81
2022/04/20 00:47:24;;;;;;;6.00;3.22;;;7.90;91.80;;;;;;5088206;28;20035;-81
2022/04/20 00:49:51;;;;;;;5.10;3.55;;;7.90;91.80;;;;;;5088786;28;20400;-81
2022/04/20 00:52:17;;;;;;;4.78;3.58;;;7.80;92.10;;;;;;5094035;28;20614;-80
2022/04/20 00:54:43;;;;;;;7.13;3.80;;;7.80;92.20;;;;;;5088894;28;20461;-80
2022/04/20 00:57:08;;;;;;;5.97;3.90;;;7.80;92.40;;;;;;5090648;28;20031;-81
2022/04/20 00:59:36;;;;;;;6.53;4.03;;;7.70;92.50;;;;;;5099753;28;20024;-81
2022/04/20 01:02:02;;;;;;;12.88;4.28;;;7.70;92.80;;;;;;5088420;28;20032;-81
2022/04/20 01:04:29;;;;;;;5.95;3.80;;;7.60;92.90;;;;;;5085830;28;20019;-81
2022/04/20 01:06:59;;;;;;;6.68;4.10;;;7.60;93.10;;;;;;5094552;28;20015;-81
2022/04/20 01:09:25;;;;;;;7.25;4.30;;;7.60;93.20;;;;;;5098081;28;20027;-81
2022/04/20 01:11:51;;;;;;;9.90;5.07;;;7.60;93.30;;;;;;5087919;28;20062;-81
2022/04/20 01:14:17;;;;;;;7.40;3.95;;;7.50;93.40;;;;;;5093418;28;20081;-81
2022/04/20 01:16:43;;;;;;;9.63;4.38;;;7.50;93.50;;;;;;5090209;28;20098;-81
2022/04/20 01:19:08;;;;;;;8.18;4.47;;;7.50;93.60;;;;;;5089013;28;20039;-80
2022/04/20 01:21:34;;;;;;;9.68;4.65;;;7.50;93.80;;;;;;5095951;28;20042;-80
2022/04/20 01:24:00;;;;;;;10.60;4.40;;;7.40;93.90;;;;;;5084949;28;20107;-81
2022/04/20 01:26:27;;;;;;;7.63;4.50;;;7.40;94.20;;;;;;5085725;28;20078;-81
2022/04/20 01:28:55;;;;;;;5.93;4.40;;;7.40;94.30;;;;;;5087588;28;20150;-81
2022/04/20 01:31:21;;;;;;;9.02;4.05;;;7.30;94.50;;;;;;5095058;28;20126;-81
2022/04/20 01:33:46;;;;;;;11.38;4.53;;;7.20;94.70;;;;;;5089727;28;20150;-81
2022/04/20 01:36:12;;;;;;;7.05;4.20;;;7.20;94.80;;;;;;5092164;28;20516;-80
2022/04/20 01:38:39;;;;;;;8.05;4.45;;;7.20;95.00;;;;;;5086724;28;20012;-81
2022/04/20 01:41:05;;;;;;;6.90;3.90;;;7.20;95.10;;;;;;5101272;28;20034;-81
2022/04/20 01:43:31;;;;;;;7.38;4.43;;;7.10;95.20;;;;;;5088040;28;20621;-81
2022/04/20 01:45:57;;;;;;;7.30;4.30;;;7.10;95.30;;;;;;5085010;28;20489;-81
2022/04/20 01:48:22;;;;;;;7.85;4.30;;;7.10;95.50;;;;;;5085017;28;20028;-81
2022/04/20 01:53:33;;;;;;;6.63;3.70;;;7.00;95.80;;;;;;5088773;28;20045;-81
2022/04/20 01:56:06;;;;;;;7.25;4.53;;;7.00;96.00;;;;;;5091719;28;20391;-80
2022/04/20 01:58:33;;;;;;;7.38;3.55;;;7.00;96.40;;;;;;5099810;28;20089;-81
2022/04/20 02:00:58;;;;;;;7.70;4.22;;;7.00;96.10;;;;;;5095022;28;20028;-80
2022/04/20 02:03:24;;;;;;;5.95;4.18;;;7.00;96.30;;;;;;5098476;28;20058;-80
2022/04/20 02:05:49;;;;;;;5.57;4.00;;;6.90;96.30;;;;;;5086371;28;20012;-80
2022/04/20 02:08:17;;;;;;;6.20;3.92;;;6.90;96.50;;;;;;5089714;28;20024;-80
2022/04/20 02:10:43;;;;;;;5.38;3.55;;;6.90;96.50;;;;;;5086658;28;20066;-81
2022/04/20 02:13:08;;;;;;;12.20;3.60;;;6.90;96.70;;;;;;5086729;28;20182;-81
2022/04/20 02:15:34;;;;;;;6.28;3.38;;;6.80;96.80;;;;;;5082896;28;20035;-80
2022/04/20 02:17:59;;;;;;;5.85;3.90;;;6.80;97.00;;;;;;5101353;28;20250;-80
2022/04/20 02:20:25;;;;;;;10.48;3.97;;;6.70;97.20;;;;;;5087917;28;20046;-80
2022/04/20 02:22:51;;;;;;;7.72;3.85;;;6.70;97.30;;;;;;5090306;28;20039;-81
2022/04/20 02:25:16;;;;;;;5.60;3.75;;;6.70;97.50;;;;;;5082689;28;20035;-80
2022/04/20 02:27:43;;;;;;;7.97;3.50;;;6.60;97.60;;;;;;5096101;28;20433;-80
2022/04/20 02:30:09;;;;;;;6.55;3.60;;;6.60;97.70;;;;;;5094497;28;20028;-80
2022/04/20 02:32:35;;;;;;;7.15;3.53;;;6.60;97.90;;;;;;5098066;28;20403;-80
2022/04/20 02:35:00;;;;;;;6.53;4.03;;;6.50;98.10;;;;;;5094743;28;20035;-80
2022/04/20 02:37:26;;;;;;;8.27;3.90;;;6.50;98.30;;;;;;5096415;28;20040;-80
2022/04/20 02:39:52;;;;;;;6.18;3.33;;;6.50;98.50;;;;;;5087960;28;20780;-79
2022/04/20 02:42:18;;;;;;;6.85;3.40;;;6.40;98.50;;;;;;5086381;28;20058;-79
2022/04/20 02:44:44;;;;;;;6.68;3.40;;;6.40;98.90;;;;;;5098116;28;20069;-80
2022/04/20 02:47:10;;;;;;;5.50;3.53;;;6.40;98.90;;;;;;5085777;28;20028;-80
2022/04/20 02:49:35;;;;;;;6.22;3.38;;;6.40;99.00;;;;;;5093409;28;20024;-80
2022/04/20 02:52:01;;;;;;;6.45;3.70;;;6.30;99.10;;;;;;5103229;28;20507;-80
2022/04/20 02:54:27;;;;;;;7.85;3.80;;;6.30;99.20;;;;;;5095603;28;20396;-79
2022/04/20 02:56:53;;;;;;;6.00;4.30;;;6.30;99.50;;;;;;5097024;28;20030;-79
2022/04/20 02:59:19;;;;;;;8.40;4.00;;;6.30;99.70;;;;;;5099527;28;20034;-80
2022/04/20 03:01:45;;;;;;;11.13;4.22;;;6.30;99.80;;;;;;5095763;28;20032;-80
2022/04/20 03:04:11;;;;;;;11.60;5.30;;;6.30;99.90;;;;;;5086913;28;20297;-79
2022/04/20 03:06:37;;;;;;;13.50;5.30;;;6.30;99.90;;;;;;5089477;28;20034;-79
2022/04/20 03:09:03;;;;;;;6.18;5.15;;;6.30;99.90;;;;;;5087350;28;20036;-80
2022/04/20 03:11:29;;;;;;;7.32;4.63;;;6.30;99.90;;;;;;5089275;28;20424;-80
2022/04/20 03:13:56;;;;;;;6.53;4.63;;;6.30;99.90;;;;;;5088412;28;20043;-80
2022/04/20 03:16:22;;;;;;;9.82;4.93;;;6.30;99.90;;;;;;5089711;28;20388;-80
2022/04/20 03:18:48;;;;;;;9.55;4.43;;;6.20;99.90;;;;;;5101808;28;20020;-79
2022/04/20 03:21:14;;;;;;;12.43;4.20;;;6.10;99.90;;;;;;5098101;28;20042;-79
2022/04/20 03:23:40;;;;;;;8.30;4.15;;;6.00;99.90;;;;;;5091662;28;20035;-79
2022/04/20 03:26:06;;;;;;;6.57;4.05;;;6.00;99.90;;;;;;5105858;28;20115;-79
2022/04/20 03:28:32;;;;;;;6.80;4.68;;;6.00;99.90;;;;;;5092001;28;20036;-79
2022/04/20 03:30:58;;;;;;;6.13;4.00;;;6.00;99.90;;;;;;5088347;28;20044;-79
2022/04/20 03:33:23;;;;;;;6.15;3.80;;;6.00;99.90;;;;;;5090008;28;20107;-79
2022/04/20 03:35:49;;;;;;;5.78;3.95;;;6.00;99.90;;;;;;5086015;28;20323;-79
2022/04/20 03:38:15;;;;;;;8.77;3.88;;;5.90;99.90;;;;;;5095551;28;20035;-79
2022/04/20 03:40:41;;;;;;;6.13;3.70;;;5.80;99.90;;;;;;5104647;28;20031;-80
2022/04/20 03:43:06;;;;;;;4.47;3.47;;;5.60;99.90;;;;;;5093330;28;20292;-80
2022/04/20 03:45:32;;;;;;;4.95;3.53;;;5.50;99.90;;;;;;5087711;28;20055;-79
2022/04/20 03:47:57;;;;;;;7.90;3.72;;;5.50;99.90;;;;;;5094138;28;20098;-79
2022/04/20 03:50:23;;;;;;;5.68;3.92;;;5.50;99.90;;;;;;5097708;28;20016;-79
2022/04/20 03:52:49;;;;;;;8.80;4.15;;;5.60;99.90;;;;;;5092243;28;20030;-79
2022/04/20 03:55:14;;;;;;;7.25;3.92;;;5.60;99.90;;;;;;5081441;28;20106;-79
2022/04/20 03:57:40;;;;;;;9.52;3.80;;;5.70;99.90;;;;;;5095959;28;20024;-79
2022/04/20 04:00:06;;;;;;;5.03;3.63;;;5.70;99.90;;;;;;5087840;28;20535;-80
2022/04/20 04:02:32;;;;;;;5.43;3.67;;;5.70;99.90;;;;;;5091451;28;20043;-79
2022/04/20 04:04:57;;;;;;;5.32;3.55;;;5.70;99.90;;;;;;5099608;28;20030;-79
2022/04/20 04:07:23;;;;;;;9.73;3.78;;;5.70;99.90;;;;;;5093208;28;20058;-79
2022/04/20 04:09:49;;;;;;;8.57;3.55;;;5.70;99.90;;;;;;5097951;28;20238;-79
2022/04/20 04:12:15;;;;;;;6.18;3.67;;;5.70;99.90;;;;;;5106262;28;20692;-79
2022/04/20 04:14:42;;;;;;;5.07;3.58;;;5.70;99.90;;;;;;5092378;28;20017;-79
2022/04/20 04:17:08;;;;;;;5.60;3.38;;;5.60;99.90;;;;;;5096344;28;20472;-79
2022/04/20 04:19:35;;;;;;;11.70;3.53;;;5.60;99.90;;;;;;5088792;28;20606;-79
2022/04/20 04:22:02;;;;;;;7.55;3.70;;;5.60;99.90;;;;;;5091894;28;21113;-79
2022/04/20 04:24:37;;;;;;;7.35;3.70;;;5.60;99.90;;;;;;5088131;28;20451;-79
2022/04/20 04:27:05;;;;;;;7.55;3.60;;;5.70;99.90;;;;;;4737799;28;9999929;-83
2022/04/20 04:29:31;;;;;;;7.32;3.95;;;5.60;99.90;;;;;;5095113;28;20040;-80
2022/04/20 04:31:57;;;;;;;10.52;4.68;;;5.60;99.90;;;;;;5094759;28;20771;-79
2022/04/20 04:34:23;;;;;;;9.93;4.43;;;5.70;99.90;;;;;;5085660;28;20456;-78
2022/04/20 04:36:50;;;;;;;12.80;5.32;;;5.60;99.90;;;;;;5088751;28;20024;-78
2022/04/20 04:39:18;;;;;;;8.15;5.30;;;5.60;99.90;;;;;;5092363;28;20032;-78
2022/04/20 04:41:47;;;;;;;10.55;5.50;;;5.70;99.90;;;;;;5088327;28;20094;-78
2022/04/20 04:44:12;;;;;;;15.52;5.75;;;5.70;99.90;;;;;;5095400;28;20580;-78
2022/04/20 04:49:22;;;;;;;8.85;4.95;;;5.80;99.90;;;;;;5097672;28;20042;-78
2022/04/20 04:51:49;;;;;;;9.98;4.93;;;5.80;99.90;;;;;;5096197;28;20415;-79
2022/04/20 04:54:15;;;;;;;10.43;4.85;;;5.80;99.90;;;;;;5078196;28;20168;-78
2022/04/20 04:56:41;;;;;;;9.65;5.05;;;5.80;99.90;;;;;;5089965;28;20475;-78
2022/04/20 04:59:06;;;;;;;8.45;4.93;;;5.80;99.90;;;;;;5091488;28;20081;-78
2022/04/20 05:01:33;;;;;;;8.60;4.50;;;5.80;99.90;;;;;;5085265;28;20036;-78
2022/04/20 05:03:59;;;;;;;7.65;4.90;;;5.80;99.90;;;;;;5082802;28;20032;-78
2022/04/20 05:06:24;;;;;;;8.65;4.40;;;5.80;99.90;;;;;;5084469;28;20015;-78
2022/04/20 05:08:50;;;;;;;6.32;4.60;;;5.90;99.90;;;;;;5094599;28;20020;-78
2022/04/20 05:11:16;;;;;;;7.25;4.63;;;5.80;99.90;;;;;;5091598;28;20101;-78
2022/04/20 05:13:42;;;;;;;7.35;4.93;;;5.80;99.90;;;;;;5101512;28;20134;-78
2022/04/20 05:16:08;;;;;;;9.63;5.78;;;5.80;99.90;;;;;;5091943;28;20384;-78
2022/04/20 05:18:34;;;;;;;7.88;6.03;;;5.70;99.90;;;;;;5091076;28;20226;-79
2022/04/20 05:21:00;;;;;;;8.25;6.10;;;5.60;99.90;;;;;;5088954;28;20304;-79
2022/04/20 05:23:25;;;;;;;9.02;6.50;;;5.50;99.90;;;;;;5096139;28;20031;-78
2022/04/20 05:25:51;;;;;;;7.70;5.85;;;5.30;99.90;;;;;;5089743;28;20028;-79
2022/04/20 05:28:17;;;;;;;9.93;5.47;;;5.20;99.90;;;;;;5087909;28;20335;-79
2022/04/20 05:30:42;;;;;;;5.47;4.68;;;5.10;99.90;;;;;;5096416;28;20044;-78
2022/04/20 05:33:08;;;;;;;6.65;4.68;;;5.00;99.90;;;;;;5097921;28;20454;-79
2022/04/20 05:35:33;;;;;;;6.35;4.65;;;5.00;99.90;;;;;;5083899;28;20111;-79
2022/04/20 05:43:28;;;;;;;6.50;4.50;;;4.90;99.90;;;;;;5088276;28;20454;-79
2022/04/20 05:45:53;;;;;;;5.70;4.28;;;4.80;99.90;;;;;;5091704;28;20028;-78
2022/04/20 05:48:19;;;;;;;7.50;5.25;;;4.80;99.90;;;;;;5086826;28;20032;-78
2022/04/20 05:50:45;;;;;;;7.85;4.97;;;4.80;99.90;;;;;;5092381;28;20143;-79
2022/04/20 05:53:11;;;;;;;5.82;4.38;;;4.90;99.90;;;;;;5108022;28;20032;-79
2022/04/20 05:55:36;;;;;;;8.73;5.10;;;5.10;99.90;;;;;;5090539;28;20035;-79
2022/04/20 05:58:02;;;;;;;9.38;5.05;;;5.10;99.90;;;;;;5092118;28;20579;-79
2022/04/20 06:00:28;;;;;;;11.00;5.60;;;5.20;99.90;;;;;;5088482;28;20032;-78
2022/04/20 06:02:55;;;;;;;7.93;5.18;;;5.20;99.90;;;;;;5098803;28;20395;-78
2022/04/20 06:05:21;;;;;;;9.68;5.35;;;5.30;99.90;;;;;;5089979;28;20442;-79
2022/04/20 06:07:47;;;;;;;6.70;4.85;;;5.40;99.90;;;;;;5088286;28;20024;-78
2022/04/20 06:10:14;;;;;;;6.32;4.90;;;5.40;99.90;;;;;;5094346;28;20032;-78
2022/04/20 06:12:39;;;;;;;6.80;4.93;;;5.50;99.90;;;;;;5100066;28;20465;-78
2022/04/20 06:15:06;;;;;;;6.35;4.82;;;5.50;99.90;;;;;;5096738;28;20082;-78
2022/04/20 06:17:32;;;;;;;6.35;5.03;;;5.50;99.90;;;;;;5087406;28;20062;-78
2022/04/20 06:19:57;;;;;;;9.77;5.03;;;5.60;99.90;;;;;;5088398;28;20020;-78
2022/04/20 06:22:23;;;;;;;8.20;5.07;;;5.70;99.90;;;;;;5091146;28;20085;-78
2022/04/20 06:24:49;;;;;;;5.90;4.72;;;5.80;99.90;;;;;;5093524;28;20529;-78
2022/04/20 06:27:15;;;;;;;7.05;4.93;;;6.00;99.90;;;;;;5090976;28;20028;-78
2022/04/20 06:29:41;;;;;;;9.48;5.00;;;6.10;99.90;;;;;;4379802;28;10000796;-78
2022/04/20 06:32:07;;;;;;;8.23;5.38;;;6.30;99.90;;;;;;5099076;28;20096;-77
2022/04/20 06:34:33;;;;;;;8.63;5.05;;;6.60;99.90;;;;;;5101345;28;20065;-78
2022/04/20 06:36:58;;;;;;;9.02;4.30;;;6.90;99.90;;;;;;5090491;28;20756;-78
2022/04/20 06:39:24;;;;;;;6.57;4.43;;;7.10;99.90;;;;;;5085956;28;20483;-78
2022/04/20 06:41:51;;;;;;;7.63;4.60;;;7.40;99.90;;;;;;5093183;28;20058;-78
2022/04/20 06:44:17;;;;;;;9.13;4.55;;;7.60;99.90;;;;;;5095887;28;20035;-78
2022/04/20 06:46:43;;;;;;;8.20;4.40;;;7.70;99.90;;;;;;5094350;28;20028;-79
2022/04/20 06:49:09;;;;;;;6.45;4.10;;;8.00;99.90;;;;;;5098905;28;20381;-79
2022/04/20 06:59:48;;;;;;;6.57;4.50;;;8.70;99.90;;;;;;5096226;28;20538;-77
2022/04/20 07:02:15;;;;;;;11.27;4.55;;;8.70;99.90;;;;;;5095910;28;20119;-77
2022/04/20 07:04:41;;;;;;;15.10;5.40;;;8.80;99.90;;;;;;5090914;28;20024;-78
2022/04/20 07:07:07;;;;;;;10.20;4.70;;;8.90;99.90;;;;;;5093759;28;20069;-78
2022/04/20 07:09:33;;;;;;;10.65;4.97;;;9.00;99.90;;;;;;5096732;28;20035;-78
2022/04/20 07:11:58;;;;;;;10.93;4.70;;;9.10;99.90;;;;;;5092601;28;20035;-78
2022/04/20 07:14:24;;;;;;;6.93;4.45;;;9.20;99.90;;;;;;5093574;28;20444;-78
2022/04/20 07:16:50;;;;;;;9.10;4.40;;;9.30;99.90;;;;;;5103248;28;20062;-78
2022/04/20 07:19:16;;;;;;;7.07;4.50;;;9.50;99.90;;;;;;5096066;28;20435;-78
2022/04/20 07:21:42;;;;;;;13.27;4.95;;;9.60;99.90;;;;;;5093644;28;20062;-78
2022/04/20 07:24:07;;;;;;;8.57;4.70;;;9.70;99.90;;;;;;5092310;28;20534;-78
2022/04/20 07:26:33;;;;;;;12.65;5.05;;;9.90;99.90;;;;;;5105384;28;20024;-78
2022/04/20 07:28:58;;;;;;;9.80;4.80;;;10.00;99.90;;;;;;5089035;28;20035;-78
2022/04/20 07:31:24;;;;;;;7.43;4.80;;;10.10;99.90;;;;;;5088286;28;20051;-78
2022/04/20 07:33:49;;;;;;;8.80;4.50;;;10.20;99.90;;;;;;5098869;28;20379;-78
2022/04/20 07:36:15;;;;;;;6.13;4.38;;;10.40;99.90;;;;;;5094482;28;20032;-78
2022/04/20 07:38:41;;;;;;;10.25;4.63;;;10.50;99.90;;;;;;5093824;28;20679;-78
2022/04/20 07:41:06;;;;;;;10.75;4.90;;;10.60;99.90;;;;;;5092533;28;20030;-78
2022/04/20 07:43:32;;;;;;;6.95;4.30;;;10.70;99.90;;;;;;5092520;28;20075;-77
2022/04/20 07:45:58;;;;;;;10.55;5.00;;;10.80;99.90;;;;;;5086668;28;20116;-80
2022/04/20 07:48:24;;;;;;;8.43;4.90;;;11.00;99.90;;;;;;5087670;28;20082;-78
2022/04/20 07:50:49;;;;;;;8.77;4.50;;;11.00;99.90;;;;;;5089834;28;20024;-78
2022/04/20 07:53:15;;;;;;;8.40;5.00;;;11.00;99.90;;;;;;5085214;28;20374;-79
2022/04/20 07:55:46;;;;;;;12.50;5.18;;;11.10;99.90;;;;;;5085232;28;20081;-79
2022/04/20 07:58:12;;;;;;;10.18;5.43;;;11.10;99.00;;;;;;5098048;28;20036;-81
2022/04/20 08:00:38;;;;;;;12.38;6.15;;;11.10;98.80;;;;;;5099773;28;20031;-77
2022/04/20 08:03:15;;;;;;;13.10;5.90;;;11.00;99.00;;;;;;5089229;28;20077;-75
2022/04/20 08:05:43;;;;;;;12.88;5.35;;;11.10;99.60;;;;;;5084647;28;20028;-78
2022/04/20 08:08:09;;;;;;;11.40;5.50;;;11.10;99.50;;;;;;5090231;28;20444;-75
2022/04/20 08:10:38;;;;;;;10.95;5.53;;;11.20;99.60;;;;;;5088497;28;20027;-78
2022/04/20 08:14:09;;;;;;;12.10;5.10;;;11.30;99.70;;;;;;5090540;28;20093;-77
2022/04/20 08:15:50;;;;;;;9.25;4.95;;;11.30;98.30;;;;;;5097581;28;20024;-77
2022/04/20 08:18:16;;;;;;;8.40;5.50;;;11.40;96.70;;;;;;5106600;28;20031;-77
2022/04/20 08:20:41;;;;;;;6.82;4.65;;;11.50;97.70;;;;;;5091417;28;20021;-77
2022/04/20 08:23:07;;;;;;;9.23;4.85;;;11.60;97.10;;;;;;5104085;28;20019;-77
2022/04/20 08:25:33;;;;;;;11.45;5.45;;;11.60;98.00;;;;;;5105188;28;20110;-76
2022/04/20 08:27:58;;;;;;;7.45;4.95;;;11.90;95.50;;;;;;5090557;28;20488;-74
2022/04/20 08:30:24;;;;;;;5.55;3.92;;;12.00;95.10;;;;;;5083880;28;20032;-80
2022/04/20 08:32:50;;;;;;;4.75;3.45;;;12.20;93.30;;;;;;5084851;28;20043;-78
2022/04/20 08:35:15;;;;;;;5.57;3.45;;;12.30;93.40;;;;;;5083655;28;20104;-77
2022/04/20 08:37:41;;;;;;;6.95;3.58;;;12.10;93.00;;;;;;5083510;28;20403;-76
2022/04/20 08:40:07;;;;;;;7.20;3.80;;;12.10;92.40;;;;;;5088397;28;20032;-79
2022/04/20 08:42:34;;;;;;;7.32;3.80;;;12.10;92.50;;;;;;5086460;28;20036;-78
2022/04/20 08:45:04;;;;;;;6.57;3.60;;;12.10;92.30;;;;;;5085949;28;20028;-80
2022/04/20 08:47:36;;;;;;;9.57;3.67;;;12.20;92.10;;;;;;5088790;28;20141;-80
2022/04/20 08:50:03;;;;;;;9.68;3.38;;;12.30;92.10;;;;;;5088185;28;20020;-77
2022/04/20 08:52:37;;;;;;;5.53;3.30;;;12.30;90.70;;;;;;5087283;28;20078;-77
2022/04/20 08:55:10;;;;;;;4.40;3.20;;;12.50;91.10;;;;;;5089707;28;20121;-75
2022/04/20 08:57:38;;;;;;;4.05;2.85;;;12.60;90.20;;;;;;5099952;28;20087;-78
2022/04/20 09:00:06;;;;;;;4.38;3.13;;;12.70;90.50;;;;;;5094660;28;20047;-78
2022/04/20 09:02:32;;;;;;;3.38;2.70;;;12.70;89.30;;;;;;5083973;28;20027;-80
2022/04/20 09:04:58;;;;;;;4.82;3.20;;;12.90;90.20;;;;;;5087349;28;20030;-78
2022/04/20 09:07:25;;;;;;;6.65;3.33;;;13.00;86.90;;;;;;5105114;28;20410;-76
2022/04/20 09:09:50;;;;;;;7.63;3.30;;;13.10;89.00;;;;;;5103236;28;20035;-76
2022/04/20 09:12:22;;;;;;;4.95;3.40;;;13.20;88.50;;;;;;5091893;28;20024;-74
2022/04/20 09:14:50;;;;;;;6.53;3.05;;;13.10;86.80;;;;;;5096467;28;20023;-77
2022/04/20 09:17:20;;;;;;;4.22;3.17;;;13.00;87.50;;;;;;5095985;28;20400;-78
2022/04/20 09:19:53;;;;;;;9.10;3.22;;;12.90;85.50;;;;;;5091205;28;20027;-80
2022/04/20 09:22:26;;;;;;;6.47;3.13;;;12.90;87.20;;;;;;5094731;28;20115;-78
2022/04/20 09:25:05;;;;;;;4.50;3.15;;;13.00;85.40;;;;;;5087483;28;20028;-79
2022/04/20 09:27:32;;;;;;;5.78;2.80;;;13.00;85.80;;;;;;5086887;28;20325;-76
2022/04/20 09:29:58;;;;;;;6.00;3.20;;;13.20;83.60;;;;;;5087070;28;20523;-74
2022/04/20 09:32:38;;;;;;;7.28;3.28;;;13.40;81.20;;;;;;5089136;28;20039;-72
2022/04/20 09:35:22;;;;;;;10.70;3.53;;;13.40;82.70;;;;;;5087752;28;20046;-74
2022/04/20 09:38:04;;;;;;;4.55;2.78;;;13.50;79.60;;;;;;5093830;28;20082;-72
2022/04/20 09:40:34;;;;;;;6.50;3.42;;;13.70;80.50;;;;;;5086507;28;20074;-74
2022/04/20 09:43:01;;;;;;;6.25;3.28;;;13.60;81.10;;;;;;5091306;28;20020;-74
2022/04/20 09:45:27;;;;;;;6.93;3.80;;;13.60;81.30;;;;;;5088568;28;20395;-74
2022/04/20 09:50:37;;;;;;;4.47;3.20;;;13.60;77.50;;;;;;5092384;28;20023;-76
2022/04/20 09:53:07;;;;;;;7.10;3.35;;;13.70;79.70;;;;;;5091957;28;20028;-76
2022/04/20 09:55:36;;;;;;;7.90;3.47;;;13.60;77.80;;;;;;5092294;28;20384;-75
2022/04/20 09:58:10;;;;;;;4.65;3.45;;;13.60;77.90;;;;;;5093373;28;20023;-76
2022/04/20 10:01:06;;;;;;;6.28;3.55;;;13.60;79.30;;;;;;5097664;28;20126;-75
2022/04/20 10:03:33;;;;;;;3.78;3.10;;;13.70;78.40;;;;;;5063661;28;20046;-75
2022/04/20 10:06:00;;;;;;;4.07;3.28;;;13.60;79.30;;;;;;5092248;28;20038;-76
2022/04/20 10:08:26;;;;;;;4.28;3.20;;;13.50;79.20;;;;;;5084871;28;20285;-75
2022/04/20 10:10:55;;;;;;;8.18;3.50;;;13.50;80.00;;;;;;5095656;28;20100;-76
2022/04/20 10:13:22;;;;;;;3.90;3.08;;;13.50;80.60;;;;;;5097578;28;20028;-75
2022/04/20 10:16:07;;;;;;;3.55;2.97;;;13.70;79.80;;;;;;5089886;28;20565;-76
2022/04/20 10:18:38;;;;;;;5.38;3.13;;;13.70;79.50;;;;;;5096866;28;20031;-75
2022/04/20 10:21:12;;;;;;;5.70;3.42;;;13.80;77.30;;;;;;5094175;28;20497;-76
2022/04/20 10:23:47;;;;;;;6.47;3.00;;;13.90;79.80;;;;;;5092874;28;20067;-75
2022/04/20 10:26:16;;;;;;;5.90;2.97;;;13.90;77.40;;;;;;5093205;28;20507;-75
2022/04/20 10:28:48;;;;;;;3.75;2.83;;;14.00;78.70;;;;;;5092992;28;20034;-79
2022/04/20 10:31:41;;;;;;;6.72;3.08;;;14.00;78.30;;;;;;5088100;28;20040;-78
2022/04/20 10:34:11;;;;;;;5.05;3.10;;;13.90;76.70;;;;;;5086434;28;20036;-79
2022/04/20 10:36:37;;;;;;;6.05;3.15;;;13.90;77.40;;;;;;5084406;28;20067;-78
2022/04/20 10:39:23;;;;;;;5.03;3.00;;;13.90;76.50;;;;;;5097459;28;20066;-78
2022/04/20 10:42:16;;;;;;;4.40;3.10;;;14.10;76.50;;;;;;5087173;28;20056;-79
2022/04/20 10:44:54;;;;;;;5.75;2.80;;;14.10;77.90;;;;;;5096664;28;20199;-79
2022/04/20 10:47:23;;;;;;;7.93;2.58;;;13.90;77.30;;;;;;5089695;28;20023;-79
2022/04/20 10:49:52;;;;;;;5.22;2.95;;;13.90;78.50;;;;;;5087077;28;20080;-78
2022/04/20 10:52:36;;;;;;;8.05;3.20;;;14.00;76.30;;;;;;5091691;28;20021;-79
2022/04/20 10:55:04;;;;;;;4.53;2.85;;;14.10;76.50;;;;;;5094391;28;20052;-76
2022/04/20 10:57:34;;;;;;;3.28;2.65;;;14.20;77.10;;;;;;5085650;28;20028;-77
2022/04/20 11:00:19;;;;;;;5.28;2.70;;;14.50;77.10;;;;;;5087886;28;20112;-83
2022/04/20 11:02:49;;;;;;;5.55;2.92;;;14.60;79.30;;;;;;5085588;28;20024;-81
2022/04/20 11:05:15;;;;;;;6.53;3.38;;;14.40;77.30;;;;;;5080808;28;20025;-83
2022/04/20 11:07:59;;;;;;;3.70;2.78;;;14.20;80.40;;;;;;5085398;28;20149;-76
2022/04/20 11:10:26;;;;;;;6.65;2.97;;;14.20;77.00;;;;;;5089898;28;20016;-76
2022/04/20 11:18:40;;;;;;;5.00;2.95;;;14.50;75.70;;;;;;5087943;28;20114;-76
2022/04/20 11:21:09;;;;;;;4.28;3.17;;;14.50;77.80;;;;;;5097463;28;20568;-77
2022/04/20 11:24:07;;;;;;;3.25;2.90;;;14.40;78.60;;;;;;5108635;28;20050;-76
2022/04/20 11:26:49;;;;;;;5.00;2.92;;;14.50;79.70;;;;;;5096715;28;20560;-76
2022/04/20 11:29:22;;;;;;;5.63;3.25;;;14.60;78.40;;;;;;5088368;28;20027;-76
2022/04/20 11:31:54;;;;;;;6.90;3.00;;;14.70;77.90;;;;;;5089146;28;20052;-76
2022/04/20 11:34:21;;;;;;;6.43;3.15;;;14.60;77.80;;;;;;5097208;28;20115;-76
2022/04/20 11:36:53;;;;;;;3.45;2.90;;;14.60;76.10;;;;;;5083599;28;20051;-76
2022/04/20 11:39:23;;;;;;;8.48;3.20;;;14.70;78.60;;;;;;5089118;28;20309;-76
2022/04/20 11:41:51;;;;;;;6.65;3.17;;;14.90;78.20;;;;;;5089296;28;20043;-76
2022/04/20 11:44:24;;;;;;;6.75;3.20;;;15.00;75.80;;;;;;5102190;28;20423;-77
2022/04/20 11:46:51;;;;;;;4.22;2.92;;;15.10;77.00;;;;;;5103952;28;20027;-77
2022/04/20 11:49:18;;;;;;;4.40;2.75;;;15.40;72.90;;;;;;5103382;28;20391;-75
2022/04/20 11:51:53;;;;;;;3.35;2.58;;;15.10;74.10;;;;;;5108879;28;20282;-76
2022/04/20 11:54:20;;;;;;;6.80;2.40;;;15.00;75.70;;;;;;5101284;28;20031;-76
2022/04/20 11:56:47;;;;;;;5.00;2.28;;;15.00;74.50;;;;;;5096301;28;20032;-76
2022/04/20 11:59:12;;;;;;;3.13;2.10;;;15.00;76.00;;;;;;5089931;28;20027;-76
2022/04/20 12:01:39;;;;;;;4.05;2.22;;;15.00;75.30;;;;;;5088043;28;20357;-76
2022/04/20 12:04:15;;;;;;;4.05;2.47;;;15.00;72.90;;;;;;5095462;28;20110;-77
2022/04/20 12:07:00;;;;;;;4.03;2.47;;;15.00;73.80;;;;;;5108530;28;20034;-77
2022/04/20 12:09:28;;;;;;;4.32;2.28;;;15.00;75.30;;;;;;5091513;28;20366;-77
2022/04/20 12:11:59;;;;;;;4.47;2.15;;;15.20;75.40;;;;;;5094114;28;20025;-77
2022/04/20 12:14:32;;;;;;;4.32;2.50;;;15.20;73.90;;;;;;5087355;28;20059;-76
2022/04/20 12:17:05;;;;;;;3.25;2.20;;;15.10;72.30;;;;;;5098662;28;20042;-76
2022/04/20 12:19:32;;;;;;;4.13;2.20;;;15.00;74.10;;;;;;5090005;28;20072;-77
2022/04/20 12:22:08;;;;;;;5.55;2.40;;;15.00;72.40;;;;;;5108271;28;20016;-77
2022/04/20 12:24:34;;;;;;;3.70;2.00;;;15.30;72.50;;;;;;5101087;28;20111;-77
2022/04/20 12:27:00;;;;;;;4.60;2.15;;;15.60;73.80;;;;;;5087584;28;20100;-77
2022/04/20 12:29:33;;;;;;;6.18;2.40;;;15.60;71.80;;;;;;5086363;28;20046;-76
2022/04/20 12:32:00;;;;;;;4.65;2.25;;;15.60;71.30;;;;;;5092811;28;20063;-80
2022/04/20 12:34:28;;;;;;;4.22;2.20;;;15.60;72.40;;;;;;5091483;28;20031;-83
2022/04/20 12:36:59;;;;;;;4.97;2.25;;;15.60;72.50;;;;;;5092431;28;20526;-82
2022/04/20 12:39:32;;;;;;;5.05;2.50;;;15.60;72.10;;;;;;5087898;28;20023;-82
2022/04/20 12:42:10;;;;;;;3.75;2.20;;;15.70;73.10;;;;;;5088560;28;20024;-79
2022/04/20 12:44:52;;;;;;;6.93;2.05;;;15.80;73.10;;;;;;5098353;28;20027;-78
2022/04/20 12:47:21;;;;;;;3.83;2.33;;;15.70;71.40;;;;;;5095541;28;20027;-79
2022/04/20 12:49:59;;;;;;;7.20;2.75;;;15.60;72.40;;;;;;5092760;28;20028;-80
2022/04/20 12:52:29;;;;;;;3.42;2.13;;;15.60;72.10;;;;;;5089291;28;20184;-81
2022/04/20 12:54:56;;;;;;;5.55;2.80;;;15.70;72.60;;;;;;5095422;28;20051;-81
2022/04/20 13:02:59;;;;;;;3.60;2.60;;;15.80;72.80;;;;;;5094387;28;20073;-80
2022/04/20 13:05:24;;;;;;;3.95;2.90;;;15.70;72.60;;;;;;5093457;28;20115;-81
2022/04/20 13:07:50;;;;;;;7.47;2.83;;;15.80;74.00;;;;;;5089444;28;20106;-81
2022/04/20 13:10:16;;;;;;;4.60;3.00;;;15.90;74.10;;;;;;5089282;28;20028;-81
2022/04/20 13:12:54;;;;;;;6.03;3.42;;;16.10;74.70;;;;;;5084660;28;20035;-76
2022/04/20 13:15:21;;;;;;;4.55;2.80;;;16.00;75.10;;;;;;5096063;28;20069;-75
2022/04/20 13:17:48;;;;;;;5.53;3.03;;;15.80;75.80;;;;;;5100100;28;20769;-76
2022/04/20 13:20:16;;;;;;;6.40;3.65;;;15.80;75.40;;;;;;5088980;28;20048;-75
2022/04/20 13:22:42;;;;;;;6.68;3.50;;;15.60;76.00;;;;;;5099574;28;20500;-76
2022/04/20 13:27:54;;;;;;;3.97;3.25;;;15.60;76.30;;;;;;5098908;28;20034;-76
2022/04/20 13:30:28;;;;;;;4.78;3.90;;;15.60;77.80;;;;;;5098750;28;20031;-76